EW8215 Weather Reports


Display with metric or nautical units.
time (UTC)temp
F
wind
direction
speed
MPH
gust
MPH
rain 1hr
in
rain 24hr
in
rain mn
in
humidity
%
barometer
mb
20240304083831 67 152 4.0 7.0 0.00 0.00 0.00 92 1011.6
20240304083330 67 172 9.0 14.0 0.00 0.00 0.00 92 1011.5
20240304082828 67 162 6.0 7.0 0.00 0.00 0.00 93 1011.4
20240304082326 67 194 4.0 5.0 0.00 0.00 0.00 92 1011.4
20240304081825 67 213 5.0 9.0 0.00 0.00 0.00 93 1011.4
20240304081325 67 171 5.0 5.0 0.00 0.00 0.00 92 1011.2
20240304080824 67 157 8.0 12.0 0.00 0.00 0.00 92 1011.3
20240304080323 67 198 6.0 9.0 0.00 0.00 0.00 92 1011.7
20240304075822 67 166 7.0 9.0 0.00 0.00 0.00 92 1011.5
20240304075322 67 152 4.0 5.0 0.00 0.00 0.00 92 1011.5
20240304074821 67 162 7.0 9.0 0.00 0.00 0.00 92 1011.5
20240304074320 67 183 4.0 10.0 0.00 0.00 0.00 92 1011.4
20240304073820 67 186 7.0 12.0 0.00 0.00 0.00 92 1011.4
20240304073318 67 143 8.0 12.0 0.00 0.00 0.00 92 1011.4
20240304072816 67 176 3.0 9.0 0.00 0.00 0.00 92 1011.5
20240304072316 67 187 5.0 9.0 0.00 0.00 0.00 92 1011.5
20240304071815 67 168 4.0 5.0 0.00 0.00 0.00 92 1011.5
20240304071314 67 171 6.0 10.0 0.00 0.00 0.00 92 1011.6
20240304070814 67 176 6.0 7.0 0.00 0.00 0.00 92 1011.5
20240304070312 67 173 11.0 14.0 0.00 0.00 0.00 92 1011.6
20240304065810 67 203 8.0 10.0 0.00 0.00 0.00 92 1011.7
20240304065309 67 138 9.0 14.0 0.00 0.00 0.00 92 1011.7
20240304064809 68 191 8.0 9.0 0.00 0.00 0.00 92 1011.7
20240304064307 68 190 6.0 9.0 0.00 0.00 0.00 92 1011.6
20240304063805 68 168 11.0 14.0 0.00 0.00 0.00 92 1011.8
20240304063304 68 166 6.0 9.0 0.00 0.00 0.00 92 1011.7
20240304062804 67 173 9.0 14.0 0.00 0.00 0.00 92 1011.8
20240304062305 67 162 8.0 12.0 0.00 0.00 0.00 92 1011.6
20240304061802 67 191 11.0 12.0 0.00 0.00 0.00 92 1011.8
20240304061302 67 185 11.0 15.0 0.00 0.00 0.00 91 1011.7
20240304060801 68 173 5.0 9.0 0.00 0.00 0.00 91 1011.9
20240304060300 68 194 6.0 10.0 0.00 0.00 0.00 91 1012.0
20240304055758 68 201 11.0 15.0 0.00 0.00 0.00 91 1011.7
20240304055258 68 182 4.0 5.0 0.00 0.00 0.00 90 1011.8
20240304054758 68 195 8.0 10.0 0.00 0.00 0.00 90 1011.7
20240304054256 68 177 5.0 9.0 0.00 0.00 0.00 90 1011.7
20240304053756 68 166 7.0 9.0 0.00 0.00 0.00 90 1011.8
20240304053254 68 186 13.0 15.0 0.00 0.00 0.00 90 1011.8
20240304052754 68 176 4.0 5.0 0.00 0.00 0.00 89 1011.9
20240304052253 68 131 9.0 12.0 0.00 0.00 0.00 89 1011.9
20240304051753 68 156 9.0 10.0 0.00 0.00 0.00 89 1012.0
20240304051251 68 169 5.0 9.0 0.00 0.00 0.00 89 1012.1
20240304050749 68 124 9.0 10.0 0.00 0.00 0.00 88 1012.2
20240304050249 68 141 5.0 7.0 0.00 0.00 0.00 88 1012.2
20240304045748 68 174 4.0 5.0 0.00 0.00 0.00 87 1012.3
20240304045247 68 163 2.0 3.0 0.00 0.00 0.00 87 1012.2
20240304044747 68 167 6.0 7.0 0.00 0.00 0.00 87 1012.4
20240304044246 68 187 6.0 7.0 0.00 0.00 0.00 86 1012.2
20240304043744 68 160 5.0 7.0 0.00 0.00 0.00 86 1012.3
20240304043242 68 166 9.0 12.0 0.00 0.00 0.00 86 1012.2
20240304042741 68 167 6.0 9.0 0.00 0.00 0.00 85 1012.3
20240304042239 68 174 6.0 9.0 0.00 0.00 0.00 85 1012.2
20240304041737 68 199 8.0 10.0 0.00 0.00 0.00 84 1012.1
20240304041236 68 150 4.0 5.0 0.00 0.00 0.00 84 1012.3
20240304040734 69 143 9.0 12.0 0.00 0.00 0.00 83 1012.2
20240304040233 69 177 2.0 3.0 0.00 0.00 0.00 83 1012.3
20240304035732 69 178 9.0 12.0 0.00 0.00 0.00 82 1012.2
20240304035230 69 189 4.0 5.0 0.00 0.00 0.00 81 1012.2
20240304034728 69 165 2.0 5.0 0.00 0.00 0.00 81 1012.4
20240304034227 69 158 5.0 7.0 0.00 0.00 0.00 81 1012.3
20240304033725 69 177 6.0 7.0 0.00 0.00 0.00 80 1012.4
20240304033225 69 186 4.0 5.0 0.00 0.00 0.00 80 1012.4
20240304032724 69 197 6.0 7.0 0.00 0.00 0.00 79 1012.4
20240304032222 69 164 6.0 7.0 0.00 0.00 0.00 78 1012.5
20240304031721 69 162 4.0 5.0 0.00 0.00 0.00 78 1012.5
20240304031219 69 164 5.0 7.0 0.00 0.00 0.00 78 1012.3
20240304030719 69 166 4.0 5.0 0.00 0.00 0.00 77 1012.4
20240304030219 69 167 8.0 10.0 0.00 0.00 0.00 77 1012.2
20240304025719 69 172 4.0 7.0 0.00 0.00 0.00 77 1012.3
20240304025217 69 154 2.0 2.0 0.00 0.00 0.00 78 1012.0
20240304024715 69 162 1.0 2.0 0.00 0.00 0.00 77 1012.2
20240304024213 69 170 4.0 7.0 0.00 0.00 0.00 77 1012.0
20240304023712 69 171 2.0 3.0 0.00 0.00 0.00 76 1012.1
20240304023212 70 153 2.0 2.0 0.00 0.00 0.00 75 1012.1
20240304022710 70 179 3.0 5.0 0.00 0.00 0.00 75 1012.0
20240304022210 70 183 2.0 3.0 0.00 0.00 0.00 75 1012.1
20240304021707 71 184 1.0 3.0 0.00 0.00 0.00 74 1012.1
20240304021205 71 167 0.0 2.0 0.00 0.00 0.00 73 1011.9
20240304020703 71 174 1.0 2.0 0.00 0.00 0.00 73 1011.9
20240304020201 71 176 3.0 3.0 0.00 0.00 0.00 72 1011.9
20240304015701 71 173 2.0 3.0 0.00 0.00 0.00 72 1011.8
20240304015159 72 162 2.0 2.0 0.00 0.00 0.00 71 1011.8
20240304014657 72 169 2.0 3.0 0.00 0.00 0.00 71 1011.6
20240304014157 72 160 0.0 0.0 0.00 0.00 0.00 71 1011.5
20240304013656 72 152 3.0 3.0 0.00 0.00 0.00 70 1011.4
20240304013154 72 168 2.0 3.0 0.00 0.00 0.00 70 1011.6
20240304012653 72 168 2.0 3.0 0.00 0.00 0.00 70 1011.3
20240304012151 72 162 1.0 2.0 0.00 0.00 0.00 70 1011.2
20240304011650 73 166 2.0 3.0 0.00 0.00 0.00 69 1011.5
20240304011149 73 155 3.0 3.0 0.00 0.00 0.00 69 1011.1
20240304010647 73 153 5.0 5.0 0.00 0.00 0.00 68 1011.1
20240304010145 73 163 4.0 5.0 0.00 0.00 0.00 68 1011.2
20240304005644 73 148 3.0 5.0 0.00 0.00 0.00 68 1011.0
20240304005142 73 150 2.0 3.0 0.00 0.00 0.00 67 1011.0
20240304004642 73 188 2.0 3.0 0.00 0.00 0.00 67 1011.2
20240304004140 74 160 2.0 2.0 0.00 0.00 0.00 67 1011.1
20240304003640 74 138 4.0 5.0 0.00 0.00 0.00 65 1011.2
20240304003137 75 167 5.0 5.0 0.00 0.00 0.00 65 1011.0
20240304002635 75 146 4.0 5.0 0.00 0.00 0.00 64 1010.9
20240304002133 75 177 9.0 10.0 0.00 0.00 0.00 63 1011.0
20240304001631 75 176 9.0 10.0 0.00 0.00 0.00 63 1010.9
20240304001130 76 160 9.0 10.0 0.00 0.00 0.00 62 1011.1
20240304000630 76 182 5.0 7.0 0.00 0.00 0.00 62 1010.9
20240304000128 77 146 4.0 5.0 0.00 0.00 0.00 62 1011.1
20240303235627 77 186 6.0 9.0 0.00 0.00 0.00 61 1010.8
20240303235125 77 182 6.0 7.0 0.00 0.00 0.00 61 1010.8
20240303234624 78 178 7.0 9.0 0.00 0.00 0.00 60 1010.9
20240303234122 78 200 12.0 14.0 0.00 0.00 0.00 59 1010.5
20240303233622 78 186 8.0 14.0 0.00 0.00 0.00 60 1010.7
20240303233122 78 172 5.0 7.0 0.00 0.00 0.00 61 1010.7
20240303232621 78 190 8.0 10.0 0.00 0.00 0.00 60 1010.9
20240303232120 79 192 11.0 14.0 0.00 0.00 0.00 59 1010.9
20240303231618 79 171 9.0 15.0 0.00 0.00 0.00 58 1010.8
20240303231117 79 196 7.0 10.0 0.00 0.00 0.00 58 1010.8
20240303230615 79 187 10.0 12.0 0.00 0.00 0.00 58 1010.5
20240303230114 79 179 6.0 7.0 0.00 0.00 0.00 58 1010.7
20240303225614 78 172 7.0 14.0 0.00 0.00 0.00 60 1010.7
20240303225112 78 208 10.0 12.0 0.00 0.00 0.00 60 1010.7
20240303224610 79 184 6.0 9.0 0.00 0.00 0.00 59 1010.7
20240303224108 79 186 7.0 12.0 0.00 0.00 0.00 59 1010.5
20240303223607 79 155 5.0 5.0 0.00 0.00 0.00 58 1010.2
20240303223106 80 182 6.0 7.0 0.00 0.00 0.00 59 1010.4
20240303222601 80 190 11.0 15.0 0.00 0.00 0.00 59 1010.4
20240303222101 79 195 7.0 10.0 0.00 0.00 0.00 58 1010.2
20240303221600 80 187 9.0 12.0 0.00 0.00 0.00 57 1010.4
20240303221059 80 164 8.0 10.0 0.00 0.00 0.00 59 1010.3
20240303220556 82 203 8.0 9.0 0.00 0.00 0.00 55 1010.1
20240303220055 82 143 15.0 24.0 0.00 0.00 0.00 56 1010.1
20240303215552 81 154 9.0 12.0 0.00 0.00 0.00 56 1010.2
20240303215051 80 131 7.0 9.0 0.00 0.00 0.00 58 1010.3
20240303214550 82 178 6.0 7.0 0.00 0.00 0.00 57 1010.3
20240303214050 81 175 6.0 9.0 0.00 0.00 0.00 56 1010.2
20240303213548 81 163 7.0 10.0 0.00 0.00 0.00 56 1010.4
20240303213048 80 217 7.0 12.0 0.00 0.00 0.00 55 1010.7
20240303212545 80 176 6.0 9.0 0.00 0.00 0.00 57 1010.7
20240303212043 81 190 7.0 10.0 0.00 0.00 0.00 58 1010.5
20240303211542 82 196 15.0 21.0 0.00 0.00 0.00 54 1010.5
20240303211040 81 206 15.0 19.0 0.00 0.00 0.00 54 1010.4
20240303210538 81 172 11.0 17.0 0.00 0.00 0.00 54 1010.4
20240303210037 80 196 10.0 12.0 0.00 0.00 0.00 57 1010.7
20240303205536 81 194 11.0 19.0 0.00 0.00 0.00 55 1010.7
20240303205035 81 170 13.0 14.0 0.00 0.00 0.00 53 1010.5
20240303204535 82 154 7.0 12.0 0.00 0.00 0.00 54 1010.5
20240303204033 81 183 8.0 14.0 0.00 0.00 0.00 56 1010.7
20240303203532 81 174 3.0 5.0 0.00 0.00 0.00 55 1010.8
20240303203032 81 190 6.0 9.0 0.00 0.00 0.00 56 1010.9
20240303202530 81 196 13.0 17.0 0.00 0.00 0.00 55 1010.8
20240303202029 80 181 8.0 12.0 0.00 0.00 0.00 57 1010.9
20240303201527 81 194 5.0 7.0 0.00 0.00 0.00 57 1010.9
20240303201025 80 202 6.0 7.0 0.00 0.00 0.00 55 1010.8
20240303200525 81 232 13.0 17.0 0.00 0.00 0.00 53 1010.8
20240303200023 80 158 6.0 7.0 0.00 0.00 0.00 56 1011.2
20240303195520 80 180 13.0 17.0 0.00 0.00 0.00 55 1011.1
20240303195019 80 184 9.0 12.0 0.00 0.00 0.00 55 1011.2
20240303194517 80 195 16.0 19.0 0.00 0.00 0.00 55 1011.3
20240303194015 80 176 15.0 17.0 0.00 0.00 0.00 56 1011.4
20240303193512 79 233 8.0 12.0 0.00 0.00 0.00 59 1011.7
20240303193012 79 203 6.0 7.0 0.00 0.00 0.00 57 1011.7
20240303192509 79 176 8.0 17.0 0.00 0.00 0.00 56 1011.9
20240303191956 79 231 10.0 10.0 0.00 0.00 0.00 57 1011.9
20240303191456 79 164 6.0 9.0 0.00 0.00 0.00 59 1011.7
20240303190954 79 171 7.0 12.0 0.00 0.00 0.00 59 1011.7
20240303190452 78 212 5.0 7.0 0.00 0.00 0.00 60 1012.1
20240303185951 78 192 11.0 12.0 0.00 0.00 0.00 60 1012.0
20240303185449 78 169 20.0 26.0 0.00 0.00 0.00 59 1012.1
20240303184948 78 185 6.0 9.0 0.00 0.00 0.00 64 1012.5
20240303184447 77 180 10.0 15.0 0.00 0.00 0.00 62 1012.5
20240303183947 76 198 9.0 12.0 0.00 0.00 0.00 62 1012.8
20240303183445 77 210 8.0 10.0 0.00 0.00 0.00 62 1012.9
20240303182945 75 153 2.0 3.0 0.00 0.00 0.00 67 1013.0
20240303182444 76 179 13.0 15.0 0.00 0.00 0.00 63 1013.1
20240303181943 76 184 3.0 5.0 0.00 0.00 0.00 65 1013.0
20240303181443 76 184 11.0 17.0 0.00 0.00 0.00 62 1013.1
20240303180942 75 200 10.0 12.0 0.00 0.00 0.00 63 1013.3
20240303180441 75 171 9.0 15.0 0.00 0.00 0.00 63 1013.2
20240303175939 76 181 11.0 14.0 0.00 0.00 0.00 64 1013.2
20240303175439 74 195 7.0 9.0 0.00 0.00 0.00 67 1013.6
20240303174938 74 175 6.0 9.0 0.00 0.00 0.00 66 1013.7
20240303174436 75 202 6.0 7.0 0.00 0.00 0.00 66 1013.6
20240303173935 74 163 10.0 15.0 0.00 0.00 0.00 66 1013.8
20240303173434 74 162 11.0 19.0 0.00 0.00 0.00 65 1013.8
20240303172932 74 178 15.0 22.0 0.00 0.00 0.00 66 1014.0
20240303172431 74 203 8.0 9.0 0.00 0.00 0.00 66 1014.3
20240303171930 74 201 13.0 17.0 0.00 0.00 0.00 67 1014.3
20240303171429 74 176 7.0 9.0 0.00 0.00 0.00 65 1014.1
20240303170929 74 188 18.0 24.0 0.00 0.00 0.00 66 1014.3
20240303170427 73 176 7.0 10.0 0.00 0.00 0.00 68 1014.2
20240303165925 73 185 5.0 7.0 0.00 0.00 0.00 70 1014.4
20240303165424 73 229 9.0 12.0 0.00 0.00 0.00 68 1014.4
20240303164923 73 199 9.0 12.0 0.00 0.00 0.00 69 1014.3
20240303164422 71 223 12.0 15.0 0.00 0.00 0.00 70 1014.4
20240303163921 71 178 10.0 15.0 0.00 0.00 0.00 70 1014.5
20240303163420 72 176 11.0 17.0 0.00 0.00 0.00 69 1014.6
20240303162920 71 221 6.0 7.0 0.00 0.00 0.00 70 1014.7
20240303162420 71 227 12.0 17.0 0.00 0.00 0.00 72 1014.7
20240303161919 70 247 12.0 17.0 0.00 0.00 0.00 73 1014.8
20240303161417 70 202 8.0 12.0 0.00 0.00 0.00 73 1014.7
20240303160915 69 170 8.0 14.0 0.00 0.00 0.00 73 1014.9
20240303160413 70 184 13.0 17.0 0.00 0.00 0.00 74 1014.8
20240303155913 70 173 6.0 7.0 0.00 0.00 0.00 74 1014.8
20240303155411 71 179 13.0 14.0 0.00 0.00 0.00 73 1014.8
20240303154910 70 168 7.0 10.0 0.00 0.00 0.00 73 1014.7
20240303154408 71 259 6.0 10.0 0.00 0.00 0.00 73 1014.6
20240303153907 70 175 7.0 12.0 0.00 0.00 0.00 76 1014.8
20240303153406 69 179 14.0 19.0 0.00 0.00 0.00 74 1014.7
20240303152904 69 148 12.0 17.0 0.00 0.00 0.00 77 1014.9
20240303152403 69 178 4.0 5.0 0.00 0.00 0.00 77 1014.9
20240303151902 69 179 8.0 10.0 0.00 0.00 0.00 78 1014.9
20240303151402 69 201 7.0 12.0 0.00 0.00 0.00 79 1014.9
20240303150901 69 223 7.0 9.0 0.00 0.00 0.00 79 1014.8
20240303150400 68 163 2.0 3.0 0.00 0.00 0.00 79 1014.8
20240303145859 67 197 9.0 12.0 0.00 0.00 0.00 81 1015.0
20240303145358 67 184 7.0 10.0 0.00 0.00 0.00 82 1015.0
20240303144856 67 193 10.0 12.0 0.00 0.00 0.00 82 1014.9
20240303144354 66 199 8.0 12.0 0.00 0.00 0.00 83 1014.8
20240303143853 66 173 4.0 5.0 0.00 0.00 0.00 85 1014.9
20240303143351 66 149 6.0 9.0 0.00 0.00 0.00 85 1015.0
20240303142850 66 173 5.0 7.0 0.00 0.00 0.00 85 1014.8
20240303142349 66 183 8.0 12.0 0.00 0.00 0.00 85 1014.7
20240303141847 65 152 4.0 5.0 0.00 0.00 0.00 87 1014.8
20240303141346 65 178 4.0 5.0 0.00 0.00 0.00 86 1015.0
20240303140844 65 182 3.0 5.0 0.00 0.00 0.00 86 1015.0
20240303140343 65 195 4.0 5.0 0.00 0.00 0.00 87 1014.9
20240303135843 65 178 4.0 5.0 0.00 0.00 0.00 87 1014.9
20240303135342 64 203 3.0 9.0 0.00 0.00 0.00 87 1014.8
20240303134841 64 156 1.0 2.0 0.00 0.00 0.00 87 1014.7
20240303134340 64 190 4.0 5.0 0.00 0.00 0.00 88 1014.6
20240303133839 64 176 3.0 7.0 0.00 0.00 0.00 88 1014.7
20240303133337 64 173 2.0 3.0 0.00 0.00 0.00 88 1014.5
20240303132837 64 170 4.0 7.0 0.00 0.00 0.00 89 1014.4
20240303132335 64 177 2.0 3.0 0.00 0.00 0.00 89 1014.6
20240303131835 64 171 4.0 5.0 0.00 0.00 0.00 89 1014.4
20240303131333 64 167 3.0 3.0 0.00 0.00 0.00 89 1014.3
20240303130832 64 164 4.0 5.0 0.00 0.00 0.00 89 1014.4
20240303130332 64 197 4.0 5.0 0.00 0.00 0.00 89 1014.4
20240303125831 63 174 5.0 7.0 0.00 0.00 0.00 90 1014.2
20240303125331 63 183 3.0 3.0 0.00 0.00 0.00 90 1014.3
20240303124830 63 145 5.0 9.0 0.00 0.00 0.00 90 1014.5
20240303124330 63 166 1.0 2.0 0.00 0.00 0.00 90 1014.4
20240303123828 64 166 1.0 2.0 0.00 0.00 0.00 90 1014.3
20240303123327 64 182 4.0 5.0 0.00 0.00 0.00 90 1014.3
20240303122826 63 168 3.0 3.0 0.00 0.00 0.00 90 1014.0
20240303122325 64 223 5.0 7.0 0.00 0.00 0.00 90 1014.2
20240303121824 64 198 4.0 5.0 0.00 0.00 0.00 89 1014.1
20240303121323 64 188 2.0 3.0 0.00 0.00 0.00 89 1014.1
20240303120822 64 160 4.0 7.0 0.00 0.00 0.00 89 1014.1
20240303120321 64 206 4.0 5.0 0.00 0.00 0.00 89 1014.2
20240303115821 64 208 5.0 7.0 0.00 0.00 0.00 89 1014.2
20240303115321 64 188 5.0 7.0 0.00 0.00 0.00 89 1014.0
20240303114820 64 156 3.0 5.0 0.00 0.00 0.00 89 1014.1
20240303114318 63 199 6.0 7.0 0.00 0.00 0.00 90 1014.0
20240303113817 63 159 3.0 3.0 0.00 0.00 0.00 90 1014.0
20240303113317 63 180 2.0 3.0 0.00 0.00 0.00 90 1014.0
20240303112816 63 181 2.0 3.0 0.00 0.00 0.00 91 1013.9
20240303112315 63 176 3.0 3.0 0.00 0.00 0.00 91 1013.7
20240303111815 63 176 4.0 5.0 0.00 0.00 0.00 91 1013.7
20240303111314 64 181 7.0 10.0 0.00 0.00 0.00 90 1013.6
20240303110813 64 168 3.0 5.0 0.00 0.00 0.00 90 1013.6
20240303110312 64 193 3.0 3.0 0.00 0.00 0.00 90 1013.7
20240303105811 63 192 5.0 9.0 0.00 0.00 0.00 90 1013.4
20240303105310 64 168 6.0 9.0 0.00 0.00 0.00 90 1013.4
20240303104808 63 181 3.0 5.0 0.00 0.00 0.00 90 1013.5
20240303104307 63 215 9.0 10.0 0.00 0.00 0.00 90 1013.3
20240303103805 63 197 5.0 7.0 0.00 0.00 0.00 90 1013.4
20240303103304 63 194 10.0 14.0 0.00 0.00 0.00 90 1013.4
20240303102803 63 232 7.0 10.0 0.00 0.00 0.00 90 1013.1
20240303102306 63 180 8.0 17.0 0.00 0.00 0.00 90 1013.2
20240303101801 63 202 4.0 5.0 0.00 0.00 0.00 90 1013.2
20240303101259 63 187 5.0 7.0 0.00 0.00 0.00 90 1013.2
20240303100757 63 178 6.0 7.0 0.00 0.00 0.00 91 1013.3
20240303100258 63 176 10.0 14.0 0.00 0.00 0.00 91 1013.3
20240303095757 63 208 9.0 12.0 0.00 0.00 0.00 91 1013.5
20240303095255 63 164 7.0 9.0 0.00 0.00 0.00 91 1013.3
20240303094753 63 188 7.0 10.0 0.00 0.00 0.00 91 1013.4
20240303094252 63 239 11.0 17.0 0.00 0.00 0.00 92 1013.2
20240303093751 63 153 2.0 3.0 0.00 0.00 0.00 92 1013.3
20240303093251 63 151 6.0 9.0 0.00 0.00 0.00 92 1013.5
20240303092751 62 187 3.0 7.0 0.00 0.00 0.00 92 1013.5
20240303092250 62 177 2.0 3.0 0.00 0.00 0.00 92 1013.5
20240303091749 62 184 3.0 5.0 0.00 0.00 0.00 92 1013.5
20240303091247 62 180 7.0 12.0 0.00 0.00 0.00 92 1013.5
20240303090745 62 167 3.0 5.0 0.00 0.00 0.00 92 1013.7
20240303090245 62 184 5.0 7.0 0.00 0.00 0.00 92 1013.7
20240303085744 62 188 3.0 3.0 0.00 0.00 0.00 92 1013.7
20240303085243 62 193 5.0 10.0 0.00 0.00 0.00 92 1013.8
20240303084743 62 163 4.0 5.0 0.00 0.00 0.00 92 1013.9
20240303084241 62 173 5.0 5.0 0.00 0.00 0.00 92 1013.9